Time;durP1;ratioP1;P1;durP2;ratioP2;P2;SDS_P1;SDS_P2;PMS_P1;PMS_P2;Temp;Humidity;BMP_temperature;BMP_pressure;BME280_temperature;BME280_humidity;BME280_pressure;Samples;Min_cycle;Max_cycle;Signal;HPM_P1;HPM_P2
2022/10/15 00:00:01;;;;;;;26.08;17.73;;;;;;;12.77;95.09;100796.59;5059909;28;20036;-65
2022/10/15 00:02:26;;;;;;;26.05;18.08;;;;;;;12.73;95.55;100792.22;5053782;28;20028;-65
2022/10/15 00:04:52;;;;;;;26.30;17.70;;;;;;;12.72;95.43;100795.63;5065174;28;20060;-65
2022/10/15 00:07:17;;;;;;;23.08;17.30;;;;;;;12.68;95.20;100793.88;5059674;28;20032;-65
2022/10/15 00:09:42;;;;;;;24.90;17.60;;;;;;;12.69;95.23;100797.31;5064390;28;20024;-65
2022/10/15 00:12:08;;;;;;;23.65;17.55;;;;;;;12.67;95.21;100798.97;5035259;28;20096;-65
2022/10/15 00:14:33;;;;;;;24.25;18.42;;;;;;;12.69;95.31;100795.59;5045993;28;20468;-65
2022/10/15 00:16:58;;;;;;;25.85;17.45;;;;;;;12.63;95.32;100792.91;5046062;28;20044;-65
2022/10/15 00:19:24;;;;;;;26.23;18.17;;;;;;;12.63;95.14;100792.03;5049830;28;20033;-65
2022/10/15 00:21:49;;;;;;;23.95;17.73;;;;;;;12.64;95.40;100799.78;5057814;28;20029;-64
2022/10/15 00:24:14;;;;;;;22.20;18.08;;;;;;;12.66;95.81;100786.91;5054301;28;20025;-65
2022/10/15 00:26:40;;;;;;;24.42;17.20;;;;;;;12.67;95.63;100793.81;5054345;28;20037;-64
2022/10/15 00:29:05;;;;;;;25.42;17.92;;;;;;;12.66;95.69;100799.81;5047818;28;20033;-65
2022/10/15 00:31:31;;;;;;;25.73;18.13;;;;;;;12.65;95.97;100803.25;5060235;28;20043;-65
2022/10/15 00:33:59;;;;;;;27.00;19.27;;;;;;;12.62;97.01;100791.16;5038654;28;20021;-65
2022/10/15 00:36:28;;;;;;;25.33;17.98;;;;;;;12.67;97.01;100805.00;5061756;28;20020;-65
2022/10/15 00:38:53;;;;;;;24.40;18.17;;;;;;;12.67;97.25;100807.56;5044256;28;20546;-65
2022/10/15 00:41:23;;;;;;;27.02;18.30;;;;;;;12.67;97.74;100796.38;5054938;28;20127;-65
2022/10/15 00:43:57;;;;;;;27.15;17.33;;;;;;;12.68;98.00;100803.28;5056371;28;20047;-65
2022/10/15 00:46:27;;;;;;;26.73;17.48;;;;;;;12.69;98.09;100800.75;5061765;28;20028;-65
2022/10/15 00:49:17;;;;;;;22.80;17.45;;;;;;;12.76;98.35;100805.19;5041344;28;20409;-65
2022/10/15 00:52:05;;;;;;;26.50;17.73;;;;;;;12.77;98.71;100803.47;5049051;28;20040;-65
2022/10/15 00:54:36;;;;;;;24.42;18.15;;;;;;;12.75;98.93;100811.19;5056799;28;20545;-65
2022/10/15 00:57:02;;;;;;;24.23;17.83;;;;;;;12.74;98.90;100801.72;5056177;28;20794;-65
2022/10/15 00:59:30;;;;;;;26.55;18.45;;;;;;;12.74;99.09;100796.56;5054262;28;20032;-65
2022/10/15 01:01:57;;;;;;;29.30;19.50;;;;;;;12.75;99.15;100793.13;5051335;28;20028;-65
2022/10/15 01:04:23;;;;;;;25.63;19.05;;;;;;;12.75;99.42;100800.88;5062096;28;20383;-65
2022/10/15 01:06:48;;;;;;;29.48;19.48;;;;;;;12.73;99.61;100792.22;5062717;28;20479;-65
2022/10/15 01:09:14;;;;;;;26.35;19.45;;;;;;;12.76;99.92;100794.84;5057574;28;20049;-64
2022/10/15 01:11:46;;;;;;;28.98;20.70;;;;;;;12.79;100.00;100792.31;5037727;28;20166;-65
2022/10/15 01:14:25;;;;;;;30.83;20.48;;;;;;;12.80;100.00;100791.50;5062759;28;20036;-65
2022/10/15 01:17:06;;;;;;;28.92;20.63;;;;;;;12.82;100.00;100789.81;5031545;28;20076;-65
2022/10/15 01:19:59;;;;;;;26.98;19.60;;;;;;;12.86;100.00;100782.97;5046585;28;20037;-65
2022/10/15 01:23:04;;;;;;;30.33;20.85;;;;;;;12.85;100.00;100776.06;5047360;28;20143;-64
2022/10/15 01:25:32;;;;;;;28.92;20.83;;;;;;;12.87;100.00;100780.44;5049687;28;20039;-65
2022/10/15 01:28:05;;;;;;;28.70;20.65;;;;;;;12.85;100.00;100766.63;5049827;28;20039;-65
2022/10/15 01:30:38;;;;;;;30.30;21.70;;;;;;;12.87;100.00;100771.81;5048911;28;20045;-65
2022/10/15 01:33:54;;;;;;;30.73;21.80;;;;;;;12.93;100.00;100759.03;5055423;28;20031;-65
2022/10/15 01:36:33;;;;;;;29.40;21.52;;;;;;;12.93;100.00;100753.00;5048087;28;20052;-65
2022/10/15 01:39:26;;;;;;;27.92;21.80;;;;;;;12.97;100.00;100757.34;5050126;28;20053;-65
2022/10/15 01:41:57;;;;;;;28.30;21.60;;;;;;;12.89;100.00;100758.09;5041230;28;20055;-65
2022/10/15 01:44:33;;;;;;;29.73;21.00;;;;;;;12.94;100.00;100763.34;5050623;28;20057;-65
2022/10/15 01:47:05;;;;;;;29.85;21.30;;;;;;;12.96;100.00;100768.53;5039334;28;20036;-65
2022/10/15 01:49:37;;;;;;;30.45;20.67;;;;;;;12.94;100.00;100763.34;5052592;28;20030;-65
2022/10/15 01:52:09;;;;;;;27.90;21.05;;;;;;;12.94;100.00;100772.81;5052017;28;20032;-64
2022/10/15 01:54:35;;;;;;;28.98;21.55;;;;;;;12.95;100.00;100762.50;5052856;28;20024;-65
2022/10/15 01:57:03;;;;;;;27.10;21.70;;;;;;;12.93;100.00;100758.16;5052496;28;20127;-65
2022/10/15 01:59:30;;;;;;;23.75;20.23;;;;;;;12.97;100.00;100755.63;5055289;28;20020;-65
2022/10/15 02:01:57;;;;;;;26.38;20.95;;;;;;;12.97;100.00;100752.19;5057284;28;20037;-65
2022/10/15 02:04:25;;;;;;;25.73;20.90;;;;;;;12.97;100.00;100747.91;5057698;28;20030;-65
2022/10/15 02:07:05;;;;;;;25.48;20.73;;;;;;;13.01;100.00;100757.44;5061829;28;20032;-65
2022/10/15 02:09:42;;;;;;;27.17;20.77;;;;;;;13.01;100.00;100743.66;5048729;28;20498;-65
2022/10/15 02:12:38;;;;;;;26.38;20.42;;;;;;;13.05;100.00;100743.75;5053631;28;20647;-65
2022/10/15 02:15:19;;;;;;;24.90;19.88;;;;;;;13.06;100.00;100747.19;5061660;28;20025;-64
2022/10/15 02:17:50;;;;;;;25.65;20.48;;;;;;;13.03;100.00;100736.81;5054587;28;20028;-65
2022/10/15 02:20:36;;;;;;;24.60;20.50;;;;;;;13.09;100.00;100742.94;5054609;28;20023;-65
2022/10/15 02:23:14;;;;;;;26.02;20.65;;;;;;;13.09;100.00;100731.72;5045231;28;20115;-65
2022/10/15 02:25:41;;;;;;;26.10;20.52;;;;;;;13.07;100.00;100726.56;5045797;28;20025;-65
2022/10/15 02:28:08;;;;;;;25.83;20.02;;;;;;;13.03;100.00;100729.91;5052741;28;20067;-65
2022/10/15 02:30:38;;;;;;;26.73;19.88;;;;;;;13.05;100.00;100728.25;5042454;28;20041;-65
2022/10/15 02:33:04;;;;;;;28.25;19.98;;;;;;;13.05;100.00;100727.38;5045200;28;20593;-65
2022/10/15 02:35:32;;;;;;;27.33;20.88;;;;;;;13.06;100.00;100724.81;5062824;28;20086;-65
2022/10/15 02:38:04;;;;;;;28.17;20.63;;;;;;;13.07;100.00;100726.56;5069634;28;20091;-65
2022/10/15 02:40:33;;;;;;;26.05;20.33;;;;;;;13.05;100.00;100712.78;5066906;28;20462;-65
2022/10/15 02:42:58;;;;;;;26.73;19.98;;;;;;;13.06;100.00;100711.91;5069772;28;20070;-65
2022/10/15 02:45:24;;;;;;;27.00;21.55;;;;;;;13.08;100.00;100712.81;5066027;28;20036;-65
2022/10/15 02:47:49;;;;;;;24.75;20.20;;;;;;;13.06;100.00;100708.47;5054626;28;20039;-65
2022/10/15 02:50:15;;;;;;;26.15;20.40;;;;;;;13.08;100.00;100706.78;5048868;28;20032;-65
2022/10/15 02:52:40;;;;;;;25.67;20.20;;;;;;;13.08;100.00;100699.88;5048596;28;20230;-65
2022/10/15 02:55:06;;;;;;;27.48;20.50;;;;;;;13.05;100.00;100696.41;5051089;28;20017;-64
2022/10/15 02:57:31;;;;;;;27.05;20.55;;;;;;;13.06;100.00;100696.44;5051389;28;20037;-65
2022/10/15 02:59:57;;;;;;;27.63;20.58;;;;;;;13.08;100.00;100691.28;5048113;28;20057;-65
2022/10/15 03:02:22;;;;;;;23.30;19.63;;;;;;;13.11;100.00;100686.19;5056847;28;20504;-65
2022/10/15 03:04:47;;;;;;;25.15;19.67;;;;;;;13.10;100.00;100687.00;5058113;28;20044;-65
2022/10/15 03:07:13;;;;;;;26.75;19.88;;;;;;;13.10;100.00;100684.41;5061594;28;20107;-65
2022/10/15 03:09:38;;;;;;;26.25;19.90;;;;;;;13.10;100.00;100681.84;5053370;28;20056;-65
2022/10/15 03:12:04;;;;;;;23.00;19.50;;;;;;;13.11;100.00;100678.44;5060237;28;20709;-65
2022/10/15 03:14:30;;;;;;;23.77;20.02;;;;;;;13.08;100.00;100676.66;5058086;28;20055;-64
2022/10/15 03:16:55;;;;;;;27.58;19.98;;;;;;;13.10;100.00;100680.16;5059099;28;20124;-65
2022/10/15 03:19:20;;;;;;;25.88;20.08;;;;;;;13.09;100.00;100687.84;5056173;28;20418;-65
2022/10/15 03:21:46;;;;;;;25.83;20.13;;;;;;;13.11;100.00;100691.34;5058287;28;20283;-65
2022/10/15 03:24:11;;;;;;;26.63;21.15;;;;;;;13.11;100.00;100687.03;5048882;28;20048;-64
2022/10/15 03:26:36;;;;;;;23.63;20.70;;;;;;;13.10;100.00;100692.16;5036154;28;20032;-64
2022/10/15 03:29:02;;;;;;;26.73;20.88;;;;;;;13.06;100.00;100688.69;5055766;28;20036;-65
2022/10/15 03:31:28;;;;;;;26.60;19.98;;;;;;;13.07;100.00;100692.13;5046137;28;20084;-64
2022/10/15 03:33:53;;;;;;;25.40;20.35;;;;;;;13.10;100.00;100687.91;5052671;28;20123;-65
2022/10/15 03:36:19;;;;;;;28.85;19.65;;;;;;;13.11;100.00;100688.75;5062403;28;20119;-65
2022/10/15 03:38:44;;;;;;;26.52;20.10;;;;;;;13.07;100.00;100674.06;5059636;28;20068;-65
2022/10/15 03:41:09;;;;;;;27.92;20.27;;;;;;;13.10;100.00;100684.41;5066926;28;20467;-65
2022/10/15 03:43:35;;;;;;;27.50;20.90;;;;;;;13.08;100.00;100680.97;5060814;28;20029;-65
2022/10/15 03:46:02;;;;;;;25.60;20.20;;;;;;;13.08;100.00;100683.53;5052654;28;20037;-65
2022/10/15 03:48:28;;;;;;;32.17;20.70;;;;;;;13.09;100.00;100680.09;5036963;28;20094;-64
2022/10/15 03:50:53;;;;;;;27.88;21.60;;;;;;;13.09;100.00;100670.66;5032557;28;20033;-65
2022/10/15 03:53:19;;;;;;;25.88;21.45;;;;;;;13.12;100.00;100667.25;5052869;28;20032;-64
2022/10/15 03:55:44;;;;;;;27.77;20.75;;;;;;;13.12;100.00;100669.84;5044609;28;20058;-65
2022/10/15 03:58:09;;;;;;;28.55;21.27;;;;;;;13.11;100.00;100661.22;5052451;28;20108;-65
2022/10/15 04:00:35;;;;;;;26.13;20.08;;;;;;;13.10;100.00;100668.94;5050198;28;20039;-65
2022/10/15 04:03:00;;;;;;;25.70;20.05;;;;;;;13.10;100.00;100667.25;5053690;28;20037;-65
2022/10/15 04:05:26;;;;;;;23.33;19.48;;;;;;;13.09;100.00;100665.47;5061647;28;20095;-65
2022/10/15 04:07:51;;;;;;;24.63;19.67;;;;;;;13.08;100.00;100655.16;5056516;28;20033;-65
2022/10/15 04:10:16;;;;;;;25.52;19.67;;;;;;;13.08;100.00;100666.34;5056957;28;20062;-65
2022/10/15 04:12:42;;;;;;;27.83;20.27;;;;;;;13.03;100.00;100662.81;5048712;28;20041;-65
2022/10/15 04:15:07;;;;;;;26.00;20.00;;;;;;;13.07;100.00;100669.78;5048147;28;20080;-65
2022/10/15 04:17:33;;;;;;;25.83;20.15;;;;;;;13.08;100.00;100670.63;5054786;28;20422;-65
2022/10/15 04:19:58;;;;;;;24.30;19.95;;;;;;;13.07;100.00;100676.66;5050390;28;20092;-65
2022/10/15 04:22:23;;;;;;;26.35;19.92;;;;;;;13.12;100.00;100682.75;5039801;28;20095;-65
2022/10/15 04:24:49;;;;;;;25.58;20.05;;;;;;;13.09;100.00;100683.56;5055410;28;20040;-65
2022/10/15 04:27:14;;;;;;;28.77;20.23;;;;;;;13.08;100.00;100678.38;5066000;28;20555;-65
2022/10/15 04:29:39;;;;;;;25.30;20.23;;;;;;;13.11;100.00;100689.63;5064039;28;20047;-65
2022/10/15 04:32:05;;;;;;;27.02;20.55;;;;;;;13.10;100.00;100689.59;5039271;28;20040;-65
2022/10/15 04:34:30;;;;;;;29.88;21.05;;;;;;;13.10;100.00;100680.16;5053608;28;20032;-63
2022/10/15 04:36:55;;;;;;;29.48;21.50;;;;;;;13.11;100.00;100673.28;5059308;28;20038;-64
2022/10/15 04:39:21;;;;;;;31.00;22.73;;;;;;;13.14;100.00;100678.47;5055005;28;20031;-64
2022/10/15 04:41:46;;;;;;;33.53;22.75;;;;;;;13.17;100.00;100686.28;5061837;28;20386;-64
2022/10/15 04:44:12;;;;;;;38.45;23.80;;;;;;;13.18;100.00;100681.97;5063251;28;20111;-64
2022/10/15 04:46:37;;;;;;;31.67;24.42;;;;;;;13.14;100.00;100676.75;5059946;28;20025;-64
2022/10/15 04:49:03;;;;;;;32.72;23.67;;;;;;;13.14;100.00;100665.56;5034352;28;20032;-64
2022/10/15 04:51:28;;;;;;;35.03;23.65;;;;;;;13.17;100.00;100675.94;5056102;28;20660;-64
2022/10/15 04:53:54;;;;;;;31.25;23.27;;;;;;;13.19;100.00;100674.25;5055994;28;20037;-64
2022/10/15 04:56:21;;;;;;;33.47;23.70;;;;;;;13.20;100.00;100669.94;5061692;28;20028;-64
2022/10/15 04:58:49;;;;;;;38.20;24.42;;;;;;;13.19;100.00;100669.06;5030197;28;20087;-64
2022/10/15 05:01:19;;;;;;;34.60;23.90;;;;;;;13.22;100.00;100673.44;5044194;28;20025;-64
2022/10/15 05:03:47;;;;;;;39.45;24.30;;;;;;;13.21;100.00;100682.91;5046394;28;20067;-64
2022/10/15 05:06:20;;;;;;;35.72;24.13;;;;;;;13.25;100.00;100674.38;5047422;28;20491;-64
2022/10/15 05:08:46;;;;;;;33.63;23.83;;;;;;;13.24;100.00;100674.34;5039670;28;20037;-64
2022/10/15 05:11:23;;;;;;;34.05;22.90;;;;;;;13.26;100.00;100675.22;5045963;28;20111;-64
2022/10/15 05:13:49;;;;;;;33.95;22.80;;;;;;;13.23;100.00;100676.06;5043326;28;20472;-64
2022/10/15 05:16:23;;;;;;;30.45;22.25;;;;;;;13.26;100.00;100665.75;5044624;28;20029;-64
2022/10/15 05:18:51;;;;;;;31.05;22.02;;;;;;;13.25;100.00;100669.19;5040162;28;20034;-63
2022/10/15 05:21:18;;;;;;;31.25;21.52;;;;;;;13.30;100.00;100675.31;5045366;28;20044;-63
2022/10/15 05:23:44;;;;;;;30.90;22.10;;;;;;;13.29;100.00;100677.88;5040520;28;20033;-64
2022/10/15 05:26:12;;;;;;;30.67;21.45;;;;;;;13.29;100.00;100680.44;5020447;28;20425;-64
2022/10/15 05:28:38;;;;;;;29.35;21.77;;;;;;;13.31;100.00;100683.91;5039397;28;20048;-63
2022/10/15 05:31:05;;;;;;;32.97;22.42;;;;;;;13.30;100.00;100684.75;5041438;28;20121;-64
2022/10/15 05:33:31;;;;;;;28.90;21.48;;;;;;;13.31;100.00;100682.19;5042821;28;20036;-64
2022/10/15 05:35:56;;;;;;;30.25;21.83;;;;;;;13.32;100.00;100681.34;5037340;28;20271;-64
2022/10/15 05:38:21;;;;;;;29.63;21.00;;;;;;;13.32;100.00;100683.06;5041149;28;20409;-64
2022/10/15 05:40:48;;;;;;;28.98;21.20;;;;;;;13.32;100.00;100677.91;5038595;28;20140;-64
2022/10/15 05:43:14;;;;;;;30.77;22.33;;;;;;;13.32;100.00;100680.47;5041720;28;20409;-64
2022/10/15 05:45:39;;;;;;;26.42;20.63;;;;;;;13.33;100.00;100677.91;5042434;28;20021;-65
2022/10/15 05:48:05;;;;;;;29.63;20.95;;;;;;;13.33;100.00;100679.63;5017624;28;20041;-64
2022/10/15 05:50:31;;;;;;;30.50;21.35;;;;;;;13.37;100.00;100679.69;5039430;28;20017;-64
2022/10/15 05:52:56;;;;;;;29.33;21.85;;;;;;;13.38;100.00;100681.44;5036025;28;20388;-64
2022/10/15 05:55:21;;;;;;;31.00;21.35;;;;;;;13.39;100.00;100672.81;5038521;28;20036;-64
2022/10/15 05:57:47;;;;;;;26.67;20.80;;;;;;;13.38;100.00;100675.41;5040829;28;20106;-64
2022/10/15 06:00:13;;;;;;;28.17;21.90;;;;;;;13.39;100.00;100679.72;5041167;28;20048;-64
2022/10/15 06:02:38;;;;;;;30.42;21.42;;;;;;;13.40;100.00;100678.84;5040847;28;20423;-65
2022/10/15 06:05:05;;;;;;;28.77;21.23;;;;;;;13.36;100.00;100671.94;5034682;28;20022;-64
2022/10/15 06:07:31;;;;;;;32.80;21.48;;;;;;;13.39;100.00;100672.81;5039283;28;20037;-65
2022/10/15 06:09:56;;;;;;;27.15;20.88;;;;;;;13.42;100.00;100682.34;5042832;28;20468;-66
2022/10/15 06:12:21;;;;;;;28.83;20.42;;;;;;;13.39;100.00;100679.72;5042467;28;20507;-65
2022/10/15 06:14:47;;;;;;;28.10;20.48;;;;;;;13.38;100.00;100676.25;5039477;28;20043;-65
2022/10/15 06:17:12;;;;;;;28.55;20.25;;;;;;;13.38;100.00;100671.09;5028743;28;20028;-65
2022/10/15 06:19:38;;;;;;;27.73;19.92;;;;;;;13.38;100.00;100675.41;5042015;28;20119;-65
2022/10/15 06:22:03;;;;;;;29.73;20.55;;;;;;;13.38;100.00;100668.50;5043658;28;20024;-65
2022/10/15 06:24:28;;;;;;;31.77;20.92;;;;;;;13.41;100.00;100671.16;5022330;28;20040;-65
2022/10/15 06:26:54;;;;;;;26.98;20.55;;;;;;;13.42;100.00;100674.59;5020863;28;20044;-65
2022/10/15 06:29:19;;;;;;;26.95;20.13;;;;;;;13.42;100.00;100677.19;5039796;28;20120;-65
2022/10/15 06:31:44;;;;;;;28.85;20.60;;;;;;;13.42;100.00;100674.59;5041364;28;20065;-65
2022/10/15 06:34:10;;;;;;;30.45;21.40;;;;;;;13.43;100.00;100684.06;5036648;28;20396;-65
2022/10/15 06:36:36;;;;;;;30.63;21.77;;;;;;;13.44;100.00;100679.78;5048618;28;20032;-65
2022/10/15 06:39:01;;;;;;;32.67;22.40;;;;;;;13.39;100.00;100667.66;5017480;28;20041;-65
2022/10/15 06:41:27;;;;;;;29.20;22.77;;;;;;;13.46;100.00;100675.50;5031971;28;20034;-65
2022/10/15 06:43:53;;;;;;;30.42;21.23;;;;;;;13.46;100.00;100678.06;5042302;28;21654;-65
2022/10/15 06:46:18;;;;;;;30.80;20.60;;;;;;;13.45;100.00;100669.47;5040031;28;20068;-64
2022/10/15 06:48:44;;;;;;;30.27;21.38;;;;;;;13.48;100.00;100671.22;5021034;28;20049;-64
2022/10/15 06:51:10;;;;;;;31.60;21.95;;;;;;;13.49;100.00;100671.25;5016259;28;20036;-64
2022/10/15 06:53:35;;;;;;;29.92;21.75;;;;;;;13.48;100.00;100666.94;5040476;28;20043;-64
2022/10/15 06:56:02;;;;;;;30.98;22.95;;;;;;;13.49;100.00;100672.97;5043340;28;20037;-64
2022/10/15 06:58:28;;;;;;;33.70;24.58;;;;;;;13.50;100.00;100675.56;5046804;28;20511;-63
2022/10/15 07:00:59;;;;;;;33.40;22.67;;;;;;;13.53;100.00;100679.88;5045388;28;20044;-64
2022/10/15 07:03:24;;;;;;;36.53;25.00;;;;;;;13.55;100.00;100681.66;5042702;28;20032;-64
2022/10/15 07:05:50;;;;;;;34.47;24.38;;;;;;;13.53;100.00;100677.31;5041925;28;20028;-63
2022/10/15 07:08:15;;;;;;;33.65;22.75;;;;;;;13.57;100.00;100681.66;5042302;28;20029;-64
2022/10/15 07:10:40;;;;;;;36.38;24.88;;;;;;;13.57;100.00;100679.09;5053840;28;20562;-64
2022/10/15 07:13:06;;;;;;;37.28;25.35;;;;;;;13.59;100.00;100677.38;5028381;28;20064;-63
2022/10/15 07:15:32;;;;;;;35.92;25.30;;;;;;;13.59;100.00;100674.78;5041463;28;20124;-63
2022/10/15 07:18:00;;;;;;;38.08;26.65;;;;;;;13.59;100.00;100672.22;5024112;28;20040;-63
2022/10/15 07:20:28;;;;;;;36.03;25.75;;;;;;;13.62;100.00;100683.47;5022491;28;20491;-63
2022/10/15 07:22:58;;;;;;;33.67;25.13;;;;;;;13.65;100.00;100690.38;5042796;28;20053;-63
2022/10/15 07:25:25;;;;;;;35.78;25.92;;;;;;;13.64;100.00;100680.91;5038806;28;20482;-63
2022/10/15 07:27:50;;;;;;;35.78;24.80;;;;;;;13.70;100.00;100683.56;5044766;28;20025;-63
2022/10/15 07:30:15;;;;;;;35.53;24.80;;;;;;;13.67;100.00;100668.03;5045641;28;20413;-64
2022/10/15 07:32:42;;;;;;;35.00;24.42;;;;;;;13.73;100.00;100664.66;5042885;28;20037;-65
2022/10/15 07:35:08;;;;;;;32.72;23.85;;;;;;;13.78;100.00;100663.88;5043836;28;20116;-64
2022/10/15 07:37:33;;;;;;;30.05;23.15;;;;;;;13.81;100.00;100657.84;5043229;28;20037;-65
2022/10/15 07:39:59;;;;;;;29.30;22.15;;;;;;;13.84;100.00;100655.31;5042195;28;20075;-64
2022/10/15 07:42:24;;;;;;;32.97;21.85;;;;;;;13.87;100.00;100650.16;5039853;28;20373;-65
2022/10/15 07:44:50;;;;;;;29.58;20.60;;;;;;;13.84;100.00;100645.84;5043921;28;20115;-64
2022/10/15 07:47:15;;;;;;;30.42;21.13;;;;;;;13.85;100.00;100639.81;5037491;28;20034;-64
2022/10/15 07:49:41;;;;;;;28.38;21.10;;;;;;;13.91;100.00;100647.63;5042168;28;20039;-65
2022/10/15 07:52:07;;;;;;;27.52;19.92;;;;;;;13.92;100.00;100648.50;5042068;28;20028;-65
2022/10/15 07:54:33;;;;;;;23.95;18.33;;;;;;;13.91;100.00;100647.63;5038084;28;20040;-65
2022/10/15 07:56:58;;;;;;;28.15;20.00;;;;;;;13.95;100.00;100648.53;5046171;28;20029;-65
2022/10/15 07:59:24;;;;;;;23.33;17.75;;;;;;;13.99;100.00;100645.13;5038814;28;20218;-65
2022/10/15 08:01:50;;;;;;;25.20;16.98;;;;;;;14.09;100.00;100636.63;5041925;28;20115;-65
2022/10/15 08:04:16;;;;;;;24.33;16.95;;;;;;;14.14;100.00;100632.38;5039402;28;20032;-66
2022/10/15 08:06:41;;;;;;;22.23;16.05;;;;;;;14.15;100.00;100641.88;5042934;28;20095;-64
2022/10/15 08:09:07;;;;;;;21.35;15.38;;;;;;;14.19;100.00;100632.41;5042922;28;20114;-64
2022/10/15 08:11:32;;;;;;;20.42;15.40;;;;;;;14.20;100.00;100639.31;5039904;28;20073;-65
2022/10/15 08:13:58;;;;;;;18.13;14.45;;;;;;;14.23;100.00;100637.63;5040718;28;20033;-65
2022/10/15 08:16:23;;;;;;;22.98;16.13;;;;;;;14.25;100.00;100632.44;5044584;28;20419;-67
2022/10/15 08:18:48;;;;;;;20.65;14.82;;;;;;;14.27;100.00;100628.19;5042474;28;20063;-66
2022/10/15 08:21:14;;;;;;;18.73;13.95;;;;;;;14.30;100.00;100628.19;5038286;28;20036;-66
2022/10/15 08:23:40;;;;;;;18.27;13.25;;;;;;;14.34;100.00;100636.88;5023862;28;20036;-66
2022/10/15 08:26:05;;;;;;;19.65;13.85;;;;;;;14.35;100.00;100626.53;5041099;28;20033;-65
2022/10/15 08:28:33;;;;;;;19.20;14.00;;;;;;;14.40;100.00;100637.78;5042275;28;20029;-66
2022/10/15 08:31:00;;;;;;;18.20;12.73;;;;;;;14.37;100.00;100627.38;5039354;28;20033;-66
2022/10/15 08:33:27;;;;;;;16.77;12.00;;;;;;;14.41;100.00;100633.47;5039933;28;20553;-66
2022/10/15 08:35:53;;;;;;;16.25;12.23;;;;;;;14.41;100.00;100626.56;5039807;28;20033;-66
2022/10/15 08:38:19;;;;;;;15.45;11.43;;;;;;;14.43;100.00;100627.44;5040495;28;20047;-66
2022/10/15 08:40:48;;;;;;;18.02;11.98;;;;;;;14.43;100.00;100619.69;5044914;28;20160;-66
2022/10/15 08:43:22;;;;;;;14.02;10.93;;;;;;;14.43;100.00;100613.66;5038908;28;20029;-66
2022/10/15 08:45:49;;;;;;;14.80;11.07;;;;;;;14.41;100.00;100608.47;5036263;28;20502;-66
2022/10/15 08:48:24;;;;;;;13.20;10.43;;;;;;;14.44;100.00;100616.28;5040781;28;20037;-66
2022/10/15 08:51:09;;;;;;;15.57;9.43;;;;;;;14.47;100.00;100610.28;5040540;28;20148;-65
2022/10/15 08:53:41;;;;;;;14.88;9.88;;;;;;;14.44;100.00;100605.06;5039533;28;20048;-66
2022/10/15 08:56:21;;;;;;;13.48;9.15;;;;;;;14.47;100.00;100612.84;5041528;28;20099;-67
2022/10/15 08:59:02;;;;;;;13.05;8.52;;;;;;;14.49;100.00;100606.84;5040735;28;20029;-66
2022/10/15 09:01:44;;;;;;;10.52;8.10;;;;;;;14.52;100.00;100598.25;5020973;28;20017;-66
2022/10/15 09:04:15;;;;;;;11.48;7.93;;;;;;;14.55;100.00;100598.25;5040764;28;20495;-67
2022/10/15 09:06:41;;;;;;;13.02;7.60;;;;;;;14.56;100.00;100591.34;5042532;28;20162;-67
2022/10/15 09:09:39;;;;;;;10.50;7.93;;;;;;;14.62;100.00;100594.00;5038912;28;20498;-66
2022/10/15 09:12:26;;;;;;;11.15;7.38;;;;;;;14.62;100.00;100596.56;5042082;28;20041;-66
2022/10/15 09:14:57;;;;;;;10.52;6.88;;;;;;;14.60;100.00;100583.63;5022916;28;20099;-66
2022/10/15 09:17:24;;;;;;;11.52;7.00;;;;;;;14.56;100.00;100568.97;5043381;28;20029;-66
2022/10/15 09:19:53;;;;;;;10.63;7.47;;;;;;;14.60;100.00;100572.41;5041017;28;20051;-66
2022/10/15 09:22:25;;;;;;;;;;;;;;;14.70;100.00;100576.81;5041094;28;20033;-66
2022/10/15 09:24:51;;;;;;;11.55;6.90;;;;;;;14.62;100.00;100579.34;5039273;28;19921;-67
2022/10/15 09:27:25;;;;;;;12.05;6.78;;;;;;;14.66;100.00;100577.63;5019192;28;20044;-69
2022/10/15 09:29:57;;;;;;;11.77;7.13;;;;;;;14.65;100.00;100578.50;5043247;28;20383;-70
2022/10/15 09:32:38;;;;;;;8.35;6.85;;;;;;;14.62;100.00;100575.88;5041651;28;20040;-70
2022/10/15 09:35:49;;;;;;;9.82;7.00;;;;;;;14.69;100.00;100573.38;5044666;28;20040;-70
2022/10/15 09:38:32;;;;;;;8.90;6.82;;;;;;;14.65;100.00;100568.16;4966351;28;20034;-71
2022/10/15 09:41:15;;;;;;;10.15;7.13;;;;;;;14.66;100.00;100562.09;4966858;28;20418;-71
2022/10/15 09:43:43;;;;;;;10.23;7.78;;;;;;;14.67;100.00;100563.84;5020493;28;20068;-70
2022/10/15 09:46:10;;;;;;;12.18;7.60;;;;;;;14.67;100.00;100559.53;5038952;28;21404;-70
2022/10/15 09:48:42;;;;;;;11.52;7.75;;;;;;;14.67;100.00;100553.47;5041279;28;20448;-70
2022/10/15 09:51:34;;;;;;;10.85;8.00;;;;;;;14.72;100.00;100557.84;5043686;28;20052;-70
2022/10/15 09:54:12;;;;;;;11.93;8.55;;;;;;;14.70;100.00;100554.38;5041740;28;20033;-70
2022/10/15 09:56:44;;;;;;;12.32;8.27;;;;;;;14.73;100.00;100558.69;5043801;28;20025;-70
2022/10/15 09:59:16;;;;;;;13.07;8.70;;;;;;;14.71;100.00;100552.66;5045937;28;20035;-70
2022/10/15 10:02:14;;;;;;;12.95;9.20;;;;;;;14.72;100.00;100547.47;5016557;28;20060;-70
2022/10/15 10:04:40;;;;;;;13.75;8.68;;;;;;;14.70;100.00;100540.59;5041944;28;20032;-69
2022/10/15 10:07:07;;;;;;;12.13;7.93;;;;;;;14.71;100.00;100542.31;5037950;28;20143;-69
2022/10/15 10:09:35;;;;;;;12.10;8.18;;;;;;;14.73;100.00;100541.44;5038682;28;20025;-70
2022/10/15 10:12:03;;;;;;;11.70;7.70;;;;;;;14.70;100.00;100538.84;5043284;28;20036;-70
2022/10/15 10:14:35;;;;;;;8.93;6.80;;;;;;;14.73;100.00;100544.03;5035830;28;20037;-69
2022/10/15 10:17:22;;;;;;;11.30;7.28;;;;;;;14.75;100.00;100539.75;5020501;28;20032;-69
2022/10/15 10:20:06;;;;;;;11.32;7.78;;;;;;;14.78;100.00;100535.44;5038902;28;20479;-70
2022/10/15 10:22:42;;;;;;;12.07;7.32;;;;;;;14.77;100.00;100536.31;5041717;28;20031;-70
2022/10/15 10:25:26;;;;;;;9.45;7.18;;;;;;;14.80;100.00;100542.34;5037950;28;20533;-68
2022/10/15 10:27:58;;;;;;;9.25;5.93;;;;;;;14.80;100.00;100544.06;5036522;28;20502;-69
2022/10/15 10:30:24;;;;;;;8.68;6.10;;;;;;;14.79;100.00;100537.16;5038226;28;20558;-70
2022/10/15 10:32:57;;;;;;;8.43;5.70;;;;;;;14.83;100.00;100539.78;5043221;28;20112;-70
2022/10/15 10:35:28;;;;;;;9.05;5.40;;;;;;;14.83;100.00;100550.16;5047208;28;20176;-70
2022/10/15 10:37:53;;;;;;;8.57;4.53;;;;;;;14.85;100.00;100544.97;5042642;28;20025;-69
2022/10/15 10:40:38;;;;;;;7.30;5.25;;;;;;;14.89;100.00;100545.00;5046822;28;20091;-69
2022/10/15 10:43:15;;;;;;;5.30;3.90;;;;;;;14.91;100.00;100542.41;5043132;28;20036;-71
2022/10/15 10:46:03;;;;;;;6.40;3.78;;;;;;;14.93;100.00;100539.00;5038315;28;20035;-71
2022/10/15 10:48:28;;;;;;;4.72;3.38;;;;;;;14.92;100.00;100541.53;5049050;28;20028;-71
2022/10/15 10:51:18;;;;;;;4.68;3.55;;;;;;;14.96;100.00;100545.91;5045061;28;20047;-70
2022/10/15 10:53:52;;;;;;;3.83;3.05;;;;;;;14.98;100.00;100550.22;5055443;28;20113;-71
2022/10/15 10:56:23;;;;;;;5.18;3.10;;;;;;;14.97;100.00;100537.25;5057911;28;20096;-71
2022/10/15 10:58:56;;;;;;;3.17;2.88;;;;;;;15.01;100.00;100544.19;5052791;28;20025;-71
2022/10/15 11:01:22;;;;;;;3.65;2.50;;;;;;;15.00;100.00;100532.13;5034198;28;20398;-71
2022/10/15 11:03:48;;;;;;;3.33;2.53;;;;;;;15.02;100.00;100526.06;5037655;28;20032;-71
2022/10/15 11:06:36;;;;;;;4.07;2.67;;;;;;;15.04;100.00;100523.47;5048932;28;20083;-71
2022/10/15 11:09:23;;;;;;;3.05;2.58;;;;;;;15.06;100.00;100521.78;5043761;28;20362;-71
2022/10/15 11:12:06;;;;;;;5.07;2.50;;;;;;;15.11;100.00;100529.59;5046736;28;20041;-71
2022/10/15 11:14:46;;;;;;;2.50;2.30;;;;;;;15.10;100.00;100526.09;5045307;28;20021;-71